Time;durP1;ratioP1;P1;durP2;ratioP2;P2;SDS_P1;SDS_P2;PMS_P1;PMS_P2;Temp;Humidity;BMP_temperature;BMP_pressure;BME280_temperature;BME280_humidity;BME280_pressure;Samples;Min_cycle;Max_cycle;Signal;HPM_P1;HPM_P2
2022/09/14 00:00:48;;;;;;;7.88;7.47;;;13.80;79.10;;;;;;5109675;28;20574;-73
2022/09/14 00:03:14;;;;;;;8.48;8.07;;;13.80;79.00;;;;;;5111140;28;20027;-73
2022/09/14 00:05:40;;;;;;;8.63;8.23;;;13.90;79.00;;;;;;5111043;28;20360;-73
2022/09/14 00:08:06;;;;;;;7.80;7.40;;;13.90;79.00;;;;;;5092643;28;20076;-73
2022/09/14 00:10:32;;;;;;;5.55;5.25;;;13.90;79.00;;;;;;5110930;28;20032;-73
2022/09/14 00:12:59;;;;;;;8.00;7.60;;;14.00;79.10;;;;;;5110756;28;20016;-73
2022/09/14 00:15:25;;;;;;;6.20;5.90;;;14.00;79.20;;;;;;5109600;28;20047;-73
2022/09/14 00:17:50;;;;;;;5.97;5.68;;;14.00;79.20;;;;;;5110665;28;20020;-73
2022/09/14 00:20:16;;;;;;;9.50;9.00;;;14.10;79.30;;;;;;5110564;28;20023;-73
2022/09/14 00:22:42;;;;;;;11.35;10.85;;;14.10;79.30;;;;;;5110516;28;20440;-73
2022/09/14 00:25:08;;;;;;;7.13;6.72;;;14.10;79.30;;;;;;5110505;28;20438;-73
2022/09/14 00:27:34;;;;;;;10.95;10.45;;;14.10;79.30;;;;;;5110523;28;20402;-73
2022/09/14 00:30:00;;;;;;;7.43;7.03;;;14.10;79.40;;;;;;5109382;28;20028;-73
2022/09/14 00:32:25;;;;;;;10.55;10.05;;;14.10;79.40;;;;;;5109154;28;20027;-73
2022/09/14 00:34:51;;;;;;;8.45;8.05;;;14.10;79.40;;;;;;5109115;28;20039;-73
2022/09/14 00:37:17;;;;;;;8.35;7.95;;;14.20;79.40;;;;;;5109225;28;20032;-73
2022/09/14 00:39:42;;;;;;;8.55;8.15;;;14.20;79.40;;;;;;5109004;28;20036;-73
2022/09/14 00:42:14;;;;;;;11.13;10.63;;;14.30;79.40;;;;;;5110166;28;20051;-73
2022/09/14 00:44:39;;;;;;;10.88;10.38;;;14.30;79.30;;;;;;5110113;28;20062;-73
2022/09/14 00:47:05;;;;;;;10.90;10.40;;;14.30;79.30;;;;;;5108881;28;20058;-73
2022/09/14 00:49:34;;;;;;;10.10;9.60;;;14.30;79.30;;;;;;5109991;28;20028;-73
2022/09/14 00:52:08;;;;;;;9.48;9.00;;;14.30;79.40;;;;;;5108579;28;20023;-73
2022/09/14 00:54:39;;;;;;;10.60;10.10;;;14.40;79.40;;;;;;5109932;28;20248;-73
2022/09/14 00:57:05;;;;;;;5.88;5.57;;;14.40;79.40;;;;;;5108445;28;20120;-73
2022/09/14 00:59:35;;;;;;;6.88;6.47;;;14.40;79.40;;;;;;5108644;28;20035;-73
2022/09/14 01:02:01;;;;;;;8.93;8.52;;;14.40;79.40;;;;;;5108538;28;20064;-73
2022/09/14 01:04:26;;;;;;;7.60;7.20;;;14.50;79.40;;;;;;5108349;28;20081;-73
2022/09/14 01:07:33;;;;;;;9.10;8.70;;;14.50;79.30;;;;;;5109917;28;20027;-73
2022/09/14 01:10:05;;;;;;;8.35;7.95;;;14.50;79.40;;;;;;5090566;28;20483;-73
2022/09/14 01:13:05;;;;;;;8.88;8.48;;;14.40;79.40;;;;;;5109546;28;20517;-73
2022/09/14 01:15:42;;;;;;;7.50;7.10;;;14.40;79.50;;;;;;5109570;28;20030;-73
2022/09/14 01:18:28;;;;;;;6.22;5.88;;;14.40;79.50;;;;;;5109637;28;20387;-73
2022/09/14 01:21:08;;;;;;;7.95;7.55;;;14.50;79.60;;;;;;5109396;28;20034;-73
2022/09/14 01:23:49;;;;;;;7.25;6.85;;;14.50;79.50;;;;;;5109622;28;20072;-73
2022/09/14 01:26:45;;;;;;;6.03;5.72;;;14.50;79.40;;;;;;5109428;28;20020;-73
2022/09/14 01:29:29;;;;;;;5.90;5.60;;;14.40;79.40;;;;;;5109381;28;20375;-73
2022/09/14 01:32:14;;;;;;;6.60;6.20;;;14.40;79.50;;;;;;5109249;28;20069;-72
2022/09/14 01:34:47;;;;;;;8.98;8.55;;;14.40;79.40;;;;;;5109191;28;20027;-73
2022/09/14 01:37:22;;;;;;;7.55;7.15;;;14.30;79.30;;;;;;5109212;28;20540;-72
2022/09/14 01:40:11;;;;;;;7.80;7.40;;;14.20;79.30;;;;;;5109174;28;20019;-72
2022/09/14 01:42:41;;;;;;;8.73;8.32;;;14.10;79.20;;;;;;5107673;28;20062;-73
2022/09/14 01:45:12;;;;;;;8.20;7.80;;;14.00;79.20;;;;;;5109077;28;20459;-73
2022/09/14 01:47:44;;;;;;;7.93;7.53;;;13.90;79.20;;;;;;5109180;28;20033;-75
2022/09/14 01:50:15;;;;;;;7.85;7.45;;;13.70;79.20;;;;;;5107734;28;20019;-73
2022/09/14 01:52:55;;;;;;;10.90;10.40;;;13.60;79.30;;;;;;5108915;28;20087;-73
2022/09/14 01:55:27;;;;;;;9.75;9.25;;;13.50;79.30;;;;;;5107656;28;20019;-74
2022/09/14 01:58:08;;;;;;;11.20;10.70;;;13.40;79.30;;;;;;5107092;28;20636;-75
2022/09/14 02:00:36;;;;;;;10.80;10.30;;;13.30;79.30;;;;;;5108682;28;20096;-75
2022/09/14 02:03:28;;;;;;;10.82;10.32;;;13.30;79.30;;;;;;5107645;28;20062;-73
2022/09/14 02:06:09;;;;;;;12.07;11.57;;;13.20;79.30;;;;;;5101466;28;20115;-73
2022/09/14 02:08:35;;;;;;;11.90;11.40;;;13.10;79.30;;;;;;5107329;28;20024;-73
2022/09/14 02:11:01;;;;;;;10.32;9.82;;;13.10;79.30;;;;;;5108636;28;20092;-72
2022/09/14 02:13:27;;;;;;;12.52;11.93;;;13.10;79.30;;;;;;5107318;28;20120;-75
2022/09/14 02:15:53;;;;;;;;;;;13.10;79.20;;;;;;5107661;28;20059;-75
2022/09/14 02:18:19;;;;;;;11.80;11.30;;;13.00;79.20;;;;;;5107233;28;20371;-72
2022/09/14 02:20:53;;;;;;;;;;;12.90;79.00;;;;;;5108762;28;20387;-73
2022/09/14 02:23:20;;;;;;;11.68;11.18;;;12.90;79.10;;;;;;5108461;28;19946;-73
2022/09/14 02:25:46;;;;;;;11.52;11.02;;;12.80;79.00;;;;;;5107002;28;20032;-75
2022/09/14 02:28:13;;;;;;;10.60;10.10;;;12.80;79.10;;;;;;5108327;28;20084;-74
2022/09/14 02:30:57;;;;;;;12.60;12.02;;;12.70;79.10;;;;;;5106999;28;20111;-75
2022/09/14 02:33:55;;;;;;;13.80;13.20;;;12.70;79.20;;;;;;5108300;28;20020;-74
2022/09/14 02:36:26;;;;;;;;;;;12.60;79.20;;;;;;5074017;28;20391;-74
2022/09/14 02:39:03;;;;;;;11.10;10.60;;;12.60;79.30;;;;;;5108107;28;20267;-74
2022/09/14 02:41:47;;;;;;;;;;;12.50;79.20;;;;;;5107432;28;20277;-74
2022/09/14 02:44:34;;;;;;;13.55;12.95;;;12.50;79.70;;;;;;5108054;28;19904;-74
2022/09/14 02:47:06;;;;;;;13.82;13.23;;;12.50;79.20;;;;;;5106775;28;20484;-74
2022/09/14 02:49:59;;;;;;;11.88;11.38;;;12.40;79.20;;;;;;5108130;28;20035;-75
2022/09/14 02:52:32;;;;;;;11.00;10.50;;;12.40;79.20;;;;;;5107838;28;20380;-75
2022/09/14 02:55:06;;;;;;;11.13;10.63;;;12.50;79.20;;;;;;5108195;28;20349;-75
2022/09/14 02:57:32;;;;;;;9.75;9.25;;;12.50;79.20;;;;;;5106421;28;20396;-74
2022/09/14 02:59:57;;;;;;;10.80;10.30;;;12.40;79.10;;;;;;5107846;28;20028;-75
2022/09/14 03:02:23;;;;;;;11.55;11.05;;;12.40;79.10;;;;;;5106537;28;20040;-74
2022/09/14 03:04:49;;;;;;;9.55;9.05;;;12.40;79.10;;;;;;5107830;28;20384;-74
2022/09/14 03:07:15;;;;;;;11.40;10.90;;;12.40;79.10;;;;;;5108108;28;20039;-75
2022/09/14 03:09:40;;;;;;;8.68;8.27;;;12.40;79.10;;;;;;5106546;28;20032;-75
2022/09/14 03:12:06;;;;;;;9.77;9.27;;;12.40;79.10;;;;;;5106643;28;20038;-74
2022/09/14 03:14:32;;;;;;;9.18;8.77;;;12.30;79.10;;;;;;5107835;28;20039;-74
2022/09/14 03:16:58;;;;;;;8.00;7.60;;;12.30;79.20;;;;;;5108211;28;20036;-74
2022/09/14 03:19:23;;;;;;;6.00;5.70;;;12.40;79.40;;;;;;5108560;28;20041;-75
2022/09/14 03:21:49;;;;;;;7.25;6.85;;;12.50;79.50;;;;;;5110708;28;20472;-74
2022/09/14 03:24:15;;;;;;;10.07;9.57;;;12.60;79.60;;;;;;5111679;28;20043;-74
2022/09/14 03:26:40;;;;;;;9.20;8.80;;;12.70;79.60;;;;;;5111859;28;20073;-74
2022/09/14 03:29:06;;;;;;;6.68;6.28;;;12.90;79.40;;;;;;5111732;28;20101;-74
2022/09/14 03:31:32;;;;;;;7.05;6.65;;;13.00;79.30;;;;;;5093369;28;20093;-74
2022/09/14 03:33:59;;;;;;;;;;;13.00;79.20;;;;;;5110804;28;20453;-74
2022/09/14 03:36:27;;;;;;;6.60;6.20;;;13.10;79.20;;;;;;5111583;28;19908;-75
2022/09/14 03:38:55;;;;;;;7.05;6.65;;;13.20;79.10;;;;;;5110133;28;20059;-74
2022/09/14 03:41:22;;;;;;;8.07;7.68;;;13.30;79.00;;;;;;5111442;28;20495;-75
2022/09/14 03:43:48;;;;;;;7.55;7.15;;;13.30;79.00;;;;;;5111445;28;20043;-74
2022/09/14 03:46:17;;;;;;;7.25;6.85;;;13.40;78.90;;;;;;5111391;28;20046;-74
2022/09/14 03:48:43;;;;;;;8.30;7.90;;;13.50;78.90;;;;;;5111299;28;20028;-74
2022/09/14 03:51:09;;;;;;;;;;;13.60;78.80;;;;;;5111666;28;20055;-74
2022/09/14 03:53:36;;;;;;;7.57;7.18;;;13.60;78.80;;;;;;5111128;28;20371;-74
2022/09/14 03:56:07;;;;;;;8.57;8.18;;;13.60;78.70;;;;;;5109639;28;20035;-75
2022/09/14 03:58:32;;;;;;;7.55;7.15;;;13.60;78.70;;;;;;5109574;28;20130;-75
2022/09/14 04:01:06;;;;;;;8.82;8.43;;;13.60;78.70;;;;;;5110940;28;20472;-74
2022/09/14 04:03:32;;;;;;;8.80;8.40;;;13.60;78.60;;;;;;5111006;28;20480;-74
2022/09/14 04:05:58;;;;;;;;;;;13.60;78.60;;;;;;5111149;28;20019;-74
2022/09/14 04:08:25;;;;;;;8.80;8.40;;;13.60;78.70;;;;;;5110904;28;19908;-75
2022/09/14 04:10:51;;;;;;;9.05;8.65;;;13.60;78.60;;;;;;5111174;28;20051;-74
2022/09/14 04:13:17;;;;;;;5.80;5.50;;;13.60;78.70;;;;;;5109564;28;20028;-74
2022/09/14 04:15:42;;;;;;;8.43;8.02;;;13.60;78.70;;;;;;5109409;28;20396;-74
2022/09/14 04:18:08;;;;;;;7.40;7.00;;;13.60;78.70;;;;;;5092337;28;20039;-74
2022/09/14 04:20:34;;;;;;;7.53;7.13;;;13.60;78.70;;;;;;5109262;28;20051;-74
2022/09/14 04:23:00;;;;;;;8.45;8.05;;;13.60;78.70;;;;;;5110774;28;20070;-74
2022/09/14 04:25:26;;;;;;;9.80;9.30;;;13.60;78.70;;;;;;5109239;28;20423;-74
2022/09/14 04:27:53;;;;;;;;;;;13.60;78.70;;;;;;5109644;28;20039;-74
2022/09/14 04:30:19;;;;;;;7.60;7.20;;;13.60;78.70;;;;;;5108514;28;19908;-74
2022/09/14 04:32:45;;;;;;;;;;;13.70;78.70;;;;;;5110843;28;20039;-74
2022/09/14 04:35:11;;;;;;;7.82;7.43;;;13.70;78.70;;;;;;5110470;28;19908;-75
2022/09/14 04:37:36;;;;;;;8.75;8.35;;;13.70;78.60;;;;;;5109272;28;20028;-74
2022/09/14 04:40:02;;;;;;;10.23;9.73;;;13.70;78.60;;;;;;5109274;28;20020;-74
2022/09/14 04:42:29;;;;;;;9.30;8.82;;;13.60;78.50;;;;;;5110188;28;20032;-75
2022/09/14 04:44:55;;;;;;;10.20;9.70;;;13.60;78.60;;;;;;5108754;28;20457;-75
2022/09/14 04:47:21;;;;;;;9.63;9.13;;;13.60;78.60;;;;;;5108882;28;20056;-74
2022/09/14 04:49:46;;;;;;;9.23;8.80;;;13.60;78.70;;;;;;5110116;28;20490;-75
2022/09/14 04:52:12;;;;;;;10.20;9.70;;;13.60;78.70;;;;;;5109931;28;20084;-75
2022/09/14 04:54:38;;;;;;;10.48;9.98;;;13.60;78.80;;;;;;5108732;28;20031;-74
2022/09/14 04:57:03;;;;;;;8.75;8.35;;;13.60;78.80;;;;;;5108680;28;20148;-74
2022/09/14 04:59:29;;;;;;;7.78;7.38;;;13.60;78.90;;;;;;5109725;28;20035;-72
2022/09/14 05:01:55;;;;;;;7.18;6.78;;;13.60;78.90;;;;;;5109866;28;20092;-72
2022/09/14 05:04:20;;;;;;;8.95;8.55;;;13.70;79.00;;;;;;5108456;28;20036;-74
2022/09/14 05:06:46;;;;;;;6.38;6.00;;;13.70;79.10;;;;;;5108465;28;20058;-75
2022/09/14 05:09:14;;;;;;;9.07;8.68;;;13.70;79.10;;;;;;5109661;28;20042;-72
2022/09/14 05:11:41;;;;;;;8.65;8.23;;;13.80;79.10;;;;;;5109595;28;20058;-75
2022/09/14 05:14:10;;;;;;;7.75;7.35;;;13.80;79.00;;;;;;5109627;28;20020;-75
2022/09/14 05:16:37;;;;;;;8.52;8.13;;;13.80;78.90;;;;;;5109538;28;20034;-73
2022/09/14 05:19:06;;;;;;;8.00;7.60;;;13.90;78.90;;;;;;5108045;28;20138;-73
2022/09/14 05:21:34;;;;;;;7.45;7.05;;;13.80;79.00;;;;;;5109574;28;20031;-73
2022/09/14 05:24:03;;;;;;;10.55;10.05;;;13.90;79.00;;;;;;5107959;28;20027;-73
2022/09/14 05:26:30;;;;;;;10.40;9.90;;;13.90;79.10;;;;;;5107729;28;20520;-73
2022/09/14 05:28:58;;;;;;;8.10;7.70;;;13.90;79.10;;;;;;5109248;28;20454;-73
2022/09/14 05:31:25;;;;;;;11.00;10.50;;;13.90;79.00;;;;;;5107663;28;20502;-74
2022/09/14 05:33:52;;;;;;;9.48;8.98;;;13.90;78.90;;;;;;5090789;28;20020;-73
2022/09/14 05:36:18;;;;;;;11.15;10.65;;;13.90;78.90;;;;;;5109090;28;20020;-73
2022/09/14 05:38:43;;;;;;;;;;;13.90;78.90;;;;;;5109638;28;20032;-72
2022/09/14 05:41:11;;;;;;;8.68;8.27;;;13.90;78.90;;;;;;5108148;28;19920;-75
2022/09/14 05:43:38;;;;;;;11.88;11.38;;;13.90;78.90;;;;;;5107418;28;20024;-75
2022/09/14 05:46:12;;;;;;;12.75;12.15;;;13.90;79.00;;;;;;5108673;28;20441;-73
2022/09/14 05:48:38;;;;;;;10.40;9.90;;;13.90;79.00;;;;;;5108770;28;20348;-75
2022/09/14 05:51:08;;;;;;;12.10;11.60;;;13.80;79.00;;;;;;5108652;28;20092;-75
2022/09/14 05:53:34;;;;;;;12.32;11.80;;;13.80;79.00;;;;;;5108628;28;20024;-73
2022/09/14 05:56:05;;;;;;;12.48;11.88;;;13.80;79.10;;;;;;5107073;28;20475;-75
2022/09/14 05:58:32;;;;;;;12.00;11.50;;;13.90;79.10;;;;;;5106894;28;20102;-74
2022/09/14 06:00:58;;;;;;;11.02;10.52;;;13.80;79.10;;;;;;5107064;28;20024;-73
2022/09/14 06:03:23;;;;;;;12.10;11.60;;;13.90;79.20;;;;;;5107164;28;20368;-75
2022/09/14 06:05:49;;;;;;;14.35;13.75;;;13.90;79.20;;;;;;5108463;28;20042;-74
2022/09/14 06:08:15;;;;;;;11.75;11.25;;;14.00;79.20;;;;;;5108102;28;20024;-74
2022/09/14 06:10:41;;;;;;;12.77;12.18;;;14.00;79.10;;;;;;5090019;28;20025;-74
2022/09/14 06:13:07;;;;;;;11.65;11.15;;;14.00;79.20;;;;;;5108471;28;20038;-74
2022/09/14 06:15:33;;;;;;;13.90;13.30;;;14.00;79.10;;;;;;5106693;28;20176;-74
2022/09/14 06:17:59;;;;;;;12.60;12.00;;;14.00;79.10;;;;;;5108161;28;20028;-74
2022/09/14 06:20:25;;;;;;;13.38;12.77;;;14.00;79.10;;;;;;5108430;28;20106;-74
2022/09/14 06:22:50;;;;;;;13.88;13.27;;;14.10;79.10;;;;;;5108127;28;20037;-74
2022/09/14 06:25:16;;;;;;;13.40;12.80;;;14.10;79.10;;;;;;5108087;28;20024;-74
2022/09/14 06:27:42;;;;;;;11.27;10.77;;;14.10;79.10;;;;;;5106628;28;20115;-74
2022/09/14 06:30:08;;;;;;;13.82;13.23;;;14.10;79.10;;;;;;5106878;28;20038;-74
2022/09/14 06:32:34;;;;;;;;;;;14.10;79.10;;;;;;5108369;28;20034;-74
2022/09/14 06:34:59;;;;;;;10.93;10.43;;;14.20;79.10;;;;;;5106464;28;19912;-74
2022/09/14 06:37:25;;;;;;;10.98;10.48;;;14.20;79.10;;;;;;5089422;28;20063;-74
2022/09/14 06:39:51;;;;;;;11.30;10.80;;;14.20;79.20;;;;;;5107562;28;20051;-74
2022/09/14 06:42:16;;;;;;;10.68;10.18;;;14.20;79.20;;;;;;5107641;28;20031;-74
2022/09/14 06:44:42;;;;;;;12.02;11.52;;;14.20;79.20;;;;;;5108044;28;20040;-74
2022/09/14 06:47:08;;;;;;;12.93;12.32;;;14.20;79.20;;;;;;5106389;28;20488;-74
2022/09/14 06:49:33;;;;;;;13.93;13.32;;;14.20;79.20;;;;;;5072544;28;20038;-74
2022/09/14 06:51:59;;;;;;;13.52;12.93;;;14.20;79.60;;;;;;5106099;28;20027;-74
2022/09/14 06:54:26;;;;;;;14.13;13.52;;;14.20;79.10;;;;;;5089042;28;20113;-74
2022/09/14 06:56:52;;;;;;;15.13;14.52;;;14.30;79.20;;;;;;5106071;28;20055;-74
2022/09/14 06:59:18;;;;;;;10.07;9.57;;;14.30;79.20;;;;;;5105806;28;20024;-74
2022/09/14 07:01:45;;;;;;;13.15;12.55;;;14.30;79.20;;;;;;5107594;28;20039;-74
2022/09/14 07:04:11;;;;;;;14.95;14.35;;;14.30;79.20;;;;;;5106063;28;20103;-74
2022/09/14 07:06:46;;;;;;;10.75;10.25;;;14.40;79.30;;;;;;5106241;28;20433;-74
2022/09/14 07:09:12;;;;;;;12.68;12.07;;;14.40;79.20;;;;;;5107498;28;20092;-74
2022/09/14 07:11:38;;;;;;;;;;;14.40;79.20;;;;;;5108033;28;20103;-73
2022/09/14 07:14:05;;;;;;;10.67;10.17;;;14.40;79.20;;;;;;5106177;28;20412;-73
2022/09/14 07:16:33;;;;;;;12.93;12.32;;;14.40;79.20;;;;;;5107536;28;20051;-74
2022/09/14 07:19:01;;;;;;;13.23;12.63;;;14.50;79.30;;;;;;5107514;28;20027;-74
2022/09/14 07:21:28;;;;;;;11.65;11.15;;;14.50;79.30;;;;;;5107173;28;20023;-74
2022/09/14 07:23:54;;;;;;;13.25;12.65;;;14.60;79.30;;;;;;5105890;28;20039;-74
2022/09/14 07:26:26;;;;;;;10.20;9.70;;;14.60;79.30;;;;;;5107325;28;20036;-74
2022/09/14 07:29:02;;;;;;;12.93;12.32;;;14.70;79.40;;;;;;5105822;28;20036;-74
2022/09/14 07:31:33;;;;;;;12.90;12.30;;;14.80;79.40;;;;;;5105904;28;20024;-74
2022/09/14 07:34:01;;;;;;;13.25;12.65;;;14.90;79.50;;;;;;5107241;28;20055;-74
2022/09/14 07:36:28;;;;;;;13.57;12.98;;;15.00;79.40;;;;;;5105828;28;20116;-74
2022/09/14 07:38:54;;;;;;;13.88;13.27;;;15.00;79.30;;;;;;5107042;28;20027;-74
2022/09/14 07:41:27;;;;;;;14.68;14.07;;;15.00;79.20;;;;;;5105590;28;20122;-74
2022/09/14 07:43:55;;;;;;;13.80;13.20;;;15.00;79.20;;;;;;5104333;28;20489;-74
2022/09/14 07:46:22;;;;;;;14.63;14.02;;;15.00;79.20;;;;;;5107704;28;20478;-74
2022/09/14 07:48:53;;;;;;;14.30;13.68;;;15.00;79.30;;;;;;5107417;28;20059;-74
2022/09/14 07:51:19;;;;;;;14.95;14.35;;;14.90;79.50;;;;;;5107705;28;20631;-74
2022/09/14 07:53:45;;;;;;;12.93;12.32;;;14.90;79.80;;;;;;5106759;28;20042;-74
2022/09/14 07:56:12;;;;;;;11.52;11.02;;;15.00;79.90;;;;;;5104571;28;20036;-74
2022/09/14 07:58:39;;;;;;;11.73;11.23;;;15.10;79.90;;;;;;5106409;28;20046;-74
2022/09/14 08:01:12;;;;;;;13.38;12.77;;;15.30;79.90;;;;;;5104936;28;20482;-74
2022/09/14 08:03:40;;;;;;;10.55;10.05;;;15.30;79.80;;;;;;5106471;28;20107;-74
2022/09/14 08:06:12;;;;;;;9.00;8.60;;;15.40;79.90;;;;;;5109306;28;20100;-74
2022/09/14 08:08:40;;;;;;;10.00;9.50;;;15.50;80.20;;;;;;5109575;28;20057;-74
2022/09/14 08:11:12;;;;;;;7.78;7.38;;;15.60;80.30;;;;;;5109683;28;20012;-75
2022/09/14 08:13:40;;;;;;;7.35;6.95;;;15.80;80.30;;;;;;5109350;28;20022;-75
2022/09/14 08:16:08;;;;;;;6.32;5.97;;;15.90;80.10;;;;;;5109843;28;20045;-75
2022/09/14 08:18:35;;;;;;;7.53;7.13;;;15.90;80.20;;;;;;5108640;28;20027;-75
2022/09/14 08:21:10;;;;;;;7.82;7.43;;;16.10;80.50;;;;;;5108199;28;20055;-75
2022/09/14 08:23:37;;;;;;;4.38;4.07;;;16.20;80.40;;;;;;5109261;28;20023;-75
2022/09/14 08:26:09;;;;;;;4.85;4.55;;;16.20;80.30;;;;;;5086153;28;20231;-75
2022/09/14 08:28:35;;;;;;;6.63;6.22;;;16.30;80.30;;;;;;5107705;28;20024;-75
2022/09/14 08:31:04;;;;;;;;;;;16.40;80.20;;;;;;5109998;28;20070;-76
2022/09/14 08:33:32;;;;;;;6.20;5.88;;;16.40;80.10;;;;;;5088746;28;19951;-75
2022/09/14 08:35:58;;;;;;;4.95;4.65;;;16.40;80.20;;;;;;5109418;28;20384;-75
2022/09/14 08:38:24;;;;;;;4.93;4.63;;;16.40;80.30;;;;;;5109307;28;20078;-75
2022/09/14 08:40:50;;;;;;;5.40;5.10;;;16.50;80.50;;;;;;5109150;28;20107;-75
2022/09/14 08:43:18;;;;;;;4.00;3.70;;;16.60;80.50;;;;;;5091210;28;20035;-75
2022/09/14 08:45:46;;;;;;;4.50;4.20;;;16.80;80.60;;;;;;5107699;28;20488;-76
2022/09/14 08:48:33;;;;;;;3.80;3.50;;;16.80;80.10;;;;;;5089511;28;20046;-76
2022/09/14 08:50:59;;;;;;;3.55;3.28;;;16.70;80.20;;;;;;5088948;28;20353;-75
2022/09/14 08:53:25;;;;;;;3.88;3.58;;;16.70;80.20;;;;;;5089534;28;20027;-77
2022/09/14 08:56:02;;;;;;;4.13;3.83;;;16.60;80.20;;;;;;5071301;28;20045;-75
2022/09/14 08:58:48;;;;;;;2.95;2.75;;;16.40;80.20;;;;;;5089031;28;20068;-75
2022/09/14 09:01:38;;;;;;;3.83;3.53;;;16.50;80.50;;;;;;5088969;28;20056;-75
2022/09/14 09:04:32;;;;;;;4.30;4.00;;;16.50;80.70;;;;;;5088882;28;20032;-76
2022/09/14 09:07:13;;;;;;;2.50;2.30;;;16.70;80.60;;;;;;5109480;28;20383;-75
2022/09/14 09:09:44;;;;;;;3.10;2.90;;;16.80;80.70;;;;;;5109158;28;20016;-75
2022/09/14 09:12:34;;;;;;;2.40;2.20;;;16.90;80.70;;;;;;5109532;28;20020;-75
2022/09/14 09:15:13;;;;;;;3.05;2.85;;;17.20;80.70;;;;;;5108943;28;20032;-76
2022/09/14 09:17:44;;;;;;;3.00;2.80;;;17.30;80.30;;;;;;5109367;28;20047;-75
2022/09/14 09:20:23;;;;;;;2.60;2.40;;;17.40;80.20;;;;;;5108846;28;20077;-75
2022/09/14 09:23:11;;;;;;;1.92;1.83;;;17.60;80.60;;;;;;5108746;28;20047;-75
2022/09/14 09:26:03;;;;;;;2.30;2.10;;;17.90;80.90;;;;;;5097622;28;20548;-76
2022/09/14 09:28:30;;;;;;;1.50;1.40;;;18.30;81.00;;;;;;5080470;28;20040;-75
2022/09/14 09:30:59;;;;;;;1.38;1.27;;;18.70;80.80;;;;;;5110542;28;20024;-75
2022/09/14 09:33:27;;;;;;;1.10;1.10;;;18.80;80.30;;;;;;5110093;28;20020;-75
2022/09/14 09:35:53;;;;;;;1.20;1.15;;;18.70;80.10;;;;;;5108242;28;20035;-75
2022/09/14 09:38:24;;;;;;;1.35;1.25;;;18.60;80.20;;;;;;5108134;28;20395;-74
2022/09/14 09:40:59;;;;;;;1.10;1.10;;;18.50;80.00;;;;;;5108864;28;20379;-74
2022/09/14 09:43:24;;;;;;;1.00;1.00;;;18.40;80.30;;;;;;5107610;28;20023;-75
2022/09/14 09:46:02;;;;;;;1.08;1.08;;;18.30;80.50;;;;;;5090868;28;20391;-75
2022/09/14 09:48:39;;;;;;;0.90;0.90;;;18.20;80.40;;;;;;5109079;28;20076;-77
2022/09/14 09:51:05;;;;;;;;;;;18.10;80.40;;;;;;5108261;28;20068;-78
2022/09/14 09:53:33;;;;;;;1.25;1.15;;;18.00;80.50;;;;;;5108996;28;19908;-78
2022/09/14 09:56:03;;;;;;;1.00;1.00;;;17.90;80.60;;;;;;5107543;28;20090;-76
2022/09/14 09:58:30;;;;;;;1.27;1.17;;;17.80;80.60;;;;;;5108934;28;20138;-76
2022/09/14 10:01:17;;;;;;;0.82;0.82;;;17.80;80.80;;;;;;5108770;28;20035;-75
2022/09/14 10:03:50;;;;;;;0.90;0.90;;;17.70;80.90;;;;;;5107432;28;20034;-74
2022/09/14 10:06:16;;;;;;;1.17;1.13;;;17.80;81.00;;;;;;5104639;28;20038;-77
2022/09/14 10:08:44;;;;;;;0.80;0.80;;;18.00;81.00;;;;;;5108861;28;20035;-76
2022/09/14 10:11:35;;;;;;;0.70;0.70;;;18.10;80.90;;;;;;5108850;28;20103;-76
2022/09/14 10:14:02;;;;;;;0.80;0.80;;;18.10;80.60;;;;;;5107512;28;20026;-77
2022/09/14 10:16:40;;;;;;;0.95;0.95;;;18.00;80.80;;;;;;5107466;28;20364;-75
2022/09/14 10:19:14;;;;;;;0.85;0.85;;;17.90;80.50;;;;;;5108787;28;20015;-75
2022/09/14 10:22:25;;;;;;;0.63;0.63;;;17.90;81.00;;;;;;5107521;28;20694;-75
2022/09/14 10:25:04;;;;;;;0.70;0.70;;;18.00;81.10;;;;;;5108637;28;20167;-76
2022/09/14 10:27:34;;;;;;;0.70;0.70;;;18.10;80.60;;;;;;5108741;28;20023;-76
2022/09/14 10:30:03;;;;;;;0.70;0.70;;;18.10;80.60;;;;;;5109081;28;20755;-76
2022/09/14 10:32:30;;;;;;;0.60;0.60;;;18.00;80.80;;;;;;5108688;28;20020;-73
2022/09/14 10:34:58;;;;;;;0.60;0.60;;;18.10;80.90;;;;;;5108460;28;20027;-75
2022/09/14 10:37:56;;;;;;;0.60;0.60;;;18.10;80.70;;;;;;5107574;28;20057;-74
2022/09/14 10:40:36;;;;;;;0.60;0.60;;;18.10;80.80;;;;;;5108357;28;20498;-74
2022/09/14 10:43:21;;;;;;;0.70;0.70;;;18.20;80.90;;;;;;5108665;28;20042;-75
2022/09/14 10:45:57;;;;;;;0.68;0.68;;;18.30;80.70;;;;;;5108708;28;20027;-75
2022/09/14 10:48:42;;;;;;;0.60;0.60;;;18.30;80.80;;;;;;5108911;28;20028;-75
2022/09/14 10:51:44;;;;;;;0.60;0.60;;;18.30;80.80;;;;;;5107011;28;20114;-75
2022/09/14 10:54:49;;;;;;;0.50;0.50;;;18.20;80.60;;;;;;5107638;28;20016;-74
2022/09/14 10:57:17;;;;;;;0.50;0.50;;;18.20;80.70;;;;;;5105509;28;20441;-74
2022/09/14 11:00:09;;;;;;;0.43;0.43;;;18.30;81.00;;;;;;5106205;28;20031;-74
2022/09/14 11:02:40;;;;;;;0.45;0.45;;;18.30;80.80;;;;;;5101759;27;20035;-77
2022/09/14 11:05:14;;;;;;;0.50;0.50;;;18.40;80.70;;;;;;5103043;28;20023;-77
2022/09/14 11:08:07;;;;;;;0.55;0.55;;;18.30;80.50;;;;;;5106365;28;20073;-76
2022/09/14 11:11:12;;;;;;;0.68;0.68;;;18.20;80.60;;;;;;5108870;28;20094;-76
2022/09/14 11:14:13;;;;;;;0.70;0.70;;;18.20;80.60;;;;;;5103346;28;20148;-76
2022/09/14 11:16:56;;;;;;;0.57;0.57;;;18.10;80.40;;;;;;5106789;28;20073;-75
2022/09/14 11:19:30;;;;;;;0.50;0.50;;;17.90;80.60;;;;;;5108941;28;20050;-76
2022/09/14 11:22:02;;;;;;;0.50;0.50;;;17.90;81.00;;;;;;5108549;28;20030;-75
2022/09/14 11:25:10;;;;;;;0.40;0.40;;;18.00;81.00;;;;;;5109066;28;20035;-76
2022/09/14 11:27:50;;;;;;;0.32;0.32;;;18.10;80.90;;;;;;5099432;28;20491;-76
2022/09/14 11:30:22;;;;;;;0.20;0.20;;;18.30;81.00;;;;;;5107440;28;20130;-76
2022/09/14 11:32:52;;;;;;;0.30;0.30;;;18.50;80.80;;;;;;5106734;28;20115;-76
2022/09/14 11:35:20;;;;;;;0.25;0.25;;;18.60;80.60;;;;;;5108368;28;20048;-76
2022/09/14 11:38:09;;;;;;;0.20;0.20;;;18.70;80.50;;;;;;5107990;28;20026;-76
2022/09/14 11:41:01;;;;;;;0.20;0.20;;;18.80;80.40;;;;;;5093952;28;20026;-76
2022/09/14 11:43:42;;;;;;;0.10;0.10;;;18.90;80.30;;;;;;5107642;28;20016;-75
2022/09/14 11:46:25;;;;;;;0.20;0.20;;;18.90;80.30;;;;;;5106402;28;20026;-76
2022/09/14 11:49:00;;;;;;;0.10;0.10;;;18.90;80.50;;;;;;5110341;28;20054;-75
2022/09/14 11:51:37;;;;;;;0.10;0.10;;;19.00;80.50;;;;;;5111641;28;20012;-76
2022/09/14 11:54:19;;;;;;;;;;;19.00;80.50;;;;;;5109298;28;20041;-75
2022/09/14 11:56:50;;;;;;;0.10;0.10;;;19.00;80.50;;;;;;5110872;28;19915;-75
2022/09/14 11:59:34;;;;;;;0.10;0.10;;;19.00;80.70;;;;;;5109557;28;20030;-75
2022/09/14 12:02:22;;;;;;;0.10;0.10;;;19.20;80.70;;;;;;5111383;28;20115;-75
2022/09/14 12:05:20;;;;;;;0.10;0.10;;;19.40;80.30;;;;;;5109740;28;20438;-75
2022/09/14 12:07:46;;;;;;;0.10;0.10;;;19.50;80.00;;;;;;5076482;28;20395;-76
2022/09/14 12:10:14;;;;;;;0.10;0.10;;;19.50;80.00;;;;;;5111666;28;20057;-76
2022/09/14 12:12:52;;;;;;;0.10;0.10;;;19.40;79.90;;;;;;5110330;28;20498;-76
2022/09/14 12:15:24;;;;;;;0.10;0.10;;;19.40;80.00;;;;;;5111773;27;20027;-76
2022/09/14 12:17:52;;;;;;;0.10;0.10;;;19.30;80.10;;;;;;5111633;28;20023;-76
2022/09/14 12:20:30;;;;;;;0.00;0.00;;;19.20;80.20;;;;;;5109447;28;20039;-76
2022/09/14 12:23:33;;;;;;;0.08;0.08;;;19.20;80.30;;;;;;5110657;28;20066;-76
2022/09/14 12:26:05;;;;;;;0.00;0.00;;;19.20;80.50;;;;;;5108756;28;20031;-75
2022/09/14 12:28:36;;;;;;;0.10;0.10;;;19.20;80.50;;;;;;5108228;28;20024;-75
2022/09/14 12:31:02;;;;;;;0.00;0.00;;;19.40;80.90;;;;;;5110840;28;20011;-77
2022/09/14 12:36:02;;;;;;;0.00;0.00;;;19.70;80.40;;;;;;5110702;28;20031;-76
2022/09/14 12:38:31;;;;;;;0.00;0.00;;;19.70;80.20;;;;;;5110679;28;20027;-75
2022/09/14 12:41:09;;;;;;;0.00;0.00;;;19.70;80.20;;;;;;5110557;28;20472;-74
2022/09/14 12:43:35;;;;;;;0.00;0.00;;;19.60;80.20;;;;;;5107729;28;20038;-75
2022/09/14 12:46:28;;;;;;;0.00;0.00;;;19.50;80.40;;;;;;5111103;28;20365;-75
2022/09/14 12:48:59;;;;;;;0.00;0.00;;;19.50;80.50;;;;;;5109101;28;20456;-72
2022/09/14 12:51:30;;;;;;;0.00;0.00;;;19.60;80.50;;;;;;5109571;28;20026;-75
2022/09/14 12:54:08;;;;;;;0.00;0.00;;;19.80;80.20;;;;;;5109872;28;20019;-75
2022/09/14 12:56:59;;;;;;;0.00;0.00;;;19.70;80.00;;;;;;5107049;28;20391;-74
2022/09/14 12:59:45;;;;;;;0.00;0.00;;;19.70;80.10;;;;;;5109187;28;20365;-76
2022/09/14 13:02:22;;;;;;;0.00;0.00;;;19.70;80.10;;;;;;5102342;28;20043;-78
2022/09/14 13:04:52;;;;;;;0.00;0.00;;;19.70;80.30;;;;;;5108921;28;20391;-78
2022/09/14 13:07:20;;;;;;;0.00;0.00;;;19.80;80.70;;;;;;5108121;28;20023;-75
2022/09/14 13:09:52;;;;;;;0.00;0.00;;;19.90;80.60;;;;;;5109916;28;20068;-76
2022/09/14 13:12:30;;;;;;;0.00;0.00;;;19.90;80.40;;;;;;5109579;28;20472;-74